Terminal Aerodrome Forecast
Issued by NWS

Home | Current Version | Previous Version | Text Only | Print | Product List | Glossary On
Versions: 1 2 3 4 5 6 7 8 9 10 11 12 13 14 15 16 17 18 19 20 21 22 23
489
FTUS43 KABR 081731
TAFATY
TAF
KATY 081731Z 0818/0918 31016G23KT 6SM BLSN OVC035
     FM082000 31016KT P6SM OVC030
     FM090100 31011KT P6SM BKN035
     FM090500 31007KT P6SM BKN040
     FM090800 31007KT P6SM SCT040=

USA.gov is the U.S. government's official web portal to all federal, state and local government web resources and services.